createdAt,value
2022-11-26T00:00:19.602Z,1016.80
2022-11-26T00:01:19.734Z,1016.76
2022-11-26T00:02:21.085Z,1016.79
2022-11-26T00:03:21.136Z,1016.89
2022-11-26T00:04:20.325Z,1016.90
2022-11-26T00:05:20.514Z,1016.89
2022-11-26T00:06:21.536Z,1016.91
2022-11-26T00:07:21.062Z,1016.93
2022-11-26T00:08:21.533Z,1016.95
2022-11-26T00:09:21.177Z,1016.89
2022-11-26T00:10:21.393Z,1016.98
2022-11-26T00:11:22.539Z,1016.93
2022-11-26T00:12:21.799Z,1016.96
2022-11-26T00:13:21.966Z,1016.96
2022-11-26T00:14:22.127Z,1017.00
2022-11-26T00:15:22.320Z,1016.95
2022-11-26T00:16:22.519Z,1017.00
2022-11-26T00:17:22.593Z,1017.03
2022-11-26T00:18:22.779Z,1017.06
2022-11-26T00:19:22.931Z,1017.08
2022-11-26T00:20:23.106Z,1017.12
2022-11-26T00:21:23.294Z,1017.11
2022-11-26T00:22:23.426Z,1017.07
2022-11-26T00:23:23.557Z,1017.07
2022-11-26T00:24:23.683Z,1017.15
2022-11-26T00:25:23.804Z,1017.09
2022-11-26T00:26:24.549Z,1017.15
2022-11-26T00:27:24.210Z,1017.21
2022-11-26T00:28:24.555Z,1017.24
2022-11-26T00:29:24.449Z,1017.26
2022-11-26T00:30:24.612Z,1017.28
2022-11-26T00:31:24.853Z,1017.37
2022-11-26T00:32:24.958Z,1017.32
2022-11-26T00:33:26.040Z,1017.43
2022-11-26T00:34:25.288Z,1017.39
2022-11-26T00:35:25.418Z,1017.42
2022-11-26T00:36:25.542Z,1017.40
2022-11-26T00:37:25.706Z,1017.39
2022-11-26T00:38:25.847Z,1017.43
2022-11-26T00:39:27.011Z,1017.49
2022-11-26T00:40:26.119Z,1017.44
2022-11-26T00:41:26.248Z,1017.55
2022-11-26T00:42:26.383Z,1017.58
2022-11-26T00:43:26.520Z,1017.55
2022-11-26T00:44:26.708Z,1017.58
2022-11-26T00:45:26.909Z,1017.62
2022-11-26T00:46:28.051Z,1017.67
2022-11-26T00:47:27.328Z,1017.71
2022-11-26T00:48:27.473Z,1017.67
2022-11-26T00:49:27.665Z,1017.75
2022-11-26T00:50:27.839Z,1017.69
2022-11-26T00:51:28.011Z,1017.73
2022-11-26T00:52:29.045Z,1017.84
2022-11-26T00:53:28.315Z,1017.84
2022-11-26T00:54:28.501Z,1017.82
2022-11-26T00:55:28.648Z,1017.86
2022-11-26T00:56:30.780Z,1017.92
2022-11-26T00:57:30.021Z,1017.86
2022-11-26T00:58:29.150Z,1017.96
2022-11-26T00:59:29.332Z,1017.95
2022-11-26T01:00:29.479Z,1018.00
2022-11-26T01:01:29.660Z,1017.95
2022-11-26T01:02:29.870Z,1017.92
2022-11-26T01:03:30.056Z,1017.91
2022-11-26T01:04:31.214Z,1017.91
2022-11-26T01:05:30.358Z,1017.91
2022-11-26T01:06:30.550Z,1017.94
2022-11-26T01:07:30.766Z,1017.98
2022-11-26T01:08:30.953Z,1017.98
2022-11-26T01:09:31.151Z,1018.02
2022-11-26T01:10:32.328Z,1018.01
2022-11-26T01:11:31.560Z,1018.05
2022-11-26T01:12:31.615Z,1018.03
2022-11-26T01:13:32.553Z,1018.11
2022-11-26T01:14:31.960Z,1018.08
2022-11-26T01:15:32.118Z,1018.14
2022-11-26T01:16:32.644Z,1018.14
2022-11-26T01:17:33.051Z,1018.16
2022-11-26T01:18:32.581Z,1018.19
2022-11-26T01:19:32.748Z,1018.18
2022-11-26T01:20:32.920Z,1018.26
2022-11-26T01:21:33.123Z,1018.25
2022-11-26T01:22:33.280Z,1018.35
2022-11-26T01:23:33.461Z,1018.22
2022-11-26T01:24:33.630Z,1018.33
2022-11-26T01:25:33.776Z,1018.32
2022-11-26T01:26:34.003Z,1018.40
2022-11-26T01:27:35.055Z,1018.43
2022-11-26T01:28:34.278Z,1018.35
2022-11-26T01:29:34.457Z,1018.32
2022-11-26T01:30:34.612Z,1018.47
2022-11-26T01:31:34.811Z,1018.47
2022-11-26T01:32:34.999Z,1018.45
2022-11-26T01:33:35.157Z,1018.44
2022-11-26T01:34:35.521Z,1018.48
2022-11-26T01:35:36.062Z,1018.49
2022-11-26T01:36:35.677Z,1018.50
2022-11-26T01:37:35.812Z,1018.55
2022-11-26T01:38:35.948Z,1018.52
2022-11-26T01:39:36.567Z,1018.57
2022-11-26T01:40:36.327Z,1018.58
2022-11-26T01:41:36.475Z,1018.63
2022-11-26T01:42:36.624Z,1018.61
2022-11-26T01:43:36.785Z,1018.61
2022-11-26T01:44:37.537Z,1018.61
2022-11-26T01:45:37.198Z,1018.65
2022-11-26T01:46:37.375Z,1018.64
2022-11-26T01:47:37.526Z,1018.67
2022-11-26T01:48:37.658Z,1018.66
2022-11-26T01:49:37.896Z,1018.72
2022-11-26T01:50:38.028Z,1018.64
2022-11-26T01:51:38.184Z,1018.72
2022-11-26T01:52:38.311Z,1018.72
2022-11-26T01:53:38.439Z,1018.70
2022-11-26T01:54:39.350Z,1018.76
2022-11-26T01:55:38.760Z,1018.72
2022-11-26T01:56:38.899Z,1018.72
2022-11-26T01:57:39.066Z,1018.76
2022-11-26T01:58:40.206Z,1018.78
2022-11-26T01:59:40.380Z,1018.76
2022-11-26T02:00:39.519Z,1018.83
2022-11-26T02:01:39.775Z,1018.79
2022-11-26T02:02:39.948Z,1018.78
2022-11-26T02:03:40.006Z,1018.85
2022-11-26T02:04:40.462Z,1018.88
2022-11-26T02:05:40.573Z,1018.89
2022-11-26T02:06:40.606Z,1018.86
2022-11-26T02:07:40.814Z,1018.88
2022-11-26T02:08:40.894Z,1018.80
2022-11-26T02:09:41.053Z,1018.87
2022-11-26T02:10:41.234Z,1018.84
2022-11-26T02:11:41.382Z,1018.88
2022-11-26T02:12:41.512Z,1018.90
2022-11-26T02:13:41.663Z,1018.86
2022-11-26T02:14:41.904Z,1018.89
2022-11-26T02:15:42.084Z,1018.86
2022-11-26T02:16:43.077Z,1018.82
2022-11-26T02:17:42.221Z,1018.89
2022-11-26T02:18:42.366Z,1018.88
2022-11-26T02:19:42.530Z,1018.88
2022-11-26T02:20:42.668Z,1018.92
2022-11-26T02:21:42.813Z,1018.96
2022-11-26T02:22:42.988Z,1018.99
2022-11-26T02:23:43.150Z,1018.99
2022-11-26T02:24:43.299Z,1018.96
2022-11-26T02:25:44.074Z,1019.00
2022-11-26T02:26:43.690Z,1018.97
2022-11-26T02:27:43.841Z,1019.00
2022-11-26T02:28:45.003Z,1019.01
2022-11-26T02:29:45.064Z,1019.01
2022-11-26T02:30:44.313Z,1019.05
2022-11-26T02:31:44.525Z,1019.09
2022-11-26T02:32:44.573Z,1019.07
2022-11-26T02:33:45.569Z,1019.09
2022-11-26T02:34:45.009Z,1019.08
2022-11-26T02:35:45.172Z,1019.07
2022-11-26T02:36:45.325Z,1019.09
2022-11-26T02:37:45.451Z,1019.06
2022-11-26T02:38:45.596Z,1019.09
2022-11-26T02:39:45.726Z,1019.06
2022-11-26T02:40:45.878Z,1019.07
2022-11-26T02:41:46.014Z,1019.08
2022-11-26T02:42:46.138Z,1019.07
2022-11-26T02:43:46.262Z,1019.05
2022-11-26T02:44:46.411Z,1019.10
2022-11-26T02:45:46.580Z,1019.10
2022-11-26T02:46:46.685Z,1019.07
2022-11-26T02:47:46.894Z,1019.04
2022-11-26T02:48:47.053Z,1019.12
2022-11-26T02:49:47.582Z,1019.04
2022-11-26T02:50:47.346Z,1019.05
2022-11-26T02:51:47.518Z,1019.00
2022-11-26T02:52:48.574Z,1019.01
2022-11-26T02:53:47.824Z,1019.00
2022-11-26T02:54:48.017Z,1019.05
2022-11-26T02:55:48.586Z,1019.03
2022-11-26T02:56:48.353Z,1018.98
2022-11-26T02:57:48.514Z,1018.96
2022-11-26T02:58:48.669Z,1019.00
2022-11-26T02:59:49.571Z,1019.01
2022-11-26T03:00:49.136Z,1019.02
2022-11-26T03:01:49.585Z,1019.04
2022-11-26T03:02:49.353Z,1019.04
2022-11-26T03:03:49.554Z,1019.10
2022-11-26T03:04:49.742Z,1019.03
2022-11-26T03:05:50.574Z,1018.99
2022-11-26T03:06:50.121Z,1019.03
2022-11-26T03:07:50.361Z,1019.03
2022-11-26T03:08:50.434Z,1019.05
2022-11-26T03:09:51.580Z,1019.09
2022-11-26T03:10:51.576Z,1019.01
2022-11-26T03:11:51.012Z,1019.07
2022-11-26T03:12:51.142Z,1019.03
2022-11-26T03:13:51.298Z,1019.02
2022-11-26T03:14:52.105Z,1019.08
2022-11-26T03:15:51.628Z,1019.11
2022-11-26T03:16:51.822Z,1019.05
2022-11-26T03:17:51.932Z,1019.13
2022-11-26T03:18:52.115Z,1019.08
2022-11-26T03:19:53.080Z,1019.07
2022-11-26T03:20:52.744Z,1019.04
2022-11-26T03:21:53.591Z,1019.07
2022-11-26T03:22:52.745Z,1019.03
2022-11-26T03:23:52.920Z,1019.06
2022-11-26T03:24:53.135Z,1019.05
2022-11-26T03:25:53.329Z,1019.09
2022-11-26T03:26:53.531Z,1019.05
2022-11-26T03:27:53.703Z,1019.07
2022-11-26T03:28:53.874Z,1019.17
2022-11-26T03:29:54.074Z,1019.13
2022-11-26T03:30:54.268Z,1019.20
2022-11-26T03:31:54.536Z,1019.20
2022-11-26T03:32:54.586Z,1019.21
2022-11-26T03:33:54.750Z,1019.16
2022-11-26T03:34:55.575Z,1019.16
2022-11-26T03:35:56.116Z,1019.19
2022-11-26T03:36:55.261Z,1019.21
2022-11-26T03:37:56.094Z,1019.26
2022-11-26T03:38:55.585Z,1019.20
2022-11-26T03:39:55.720Z,1019.31
2022-11-26T03:40:55.873Z,1019.31
2022-11-26T03:41:56.040Z,1019.27
2022-11-26T03:42:56.204Z,1019.33
2022-11-26T03:43:57.085Z,1019.30
2022-11-26T03:44:56.453Z,1019.39
2022-11-26T03:45:56.671Z,1019.37
2022-11-26T03:46:56.746Z,1019.37
2022-11-26T03:47:56.908Z,1019.36
2022-11-26T03:48:57.064Z,1019.37
2022-11-26T03:49:57.217Z,1019.32
2022-11-26T03:50:57.368Z,1019.29
2022-11-26T03:51:57.536Z,1019.35
2022-11-26T03:52:57.697Z,1019.35
2022-11-26T03:53:57.860Z,1019.35
2022-11-26T03:54:58.025Z,1019.35
2022-11-26T03:55:59.087Z,1019.34
2022-11-26T03:56:58.338Z,1019.34
2022-11-26T03:57:58.501Z,1019.33
2022-11-26T03:58:58.672Z,1019.37
2022-11-26T03:59:58.838Z,1019.43
2022-11-26T04:00:59.033Z,1019.41
2022-11-26T04:01:59.199Z,1019.40
2022-11-26T04:02:59.418Z,1019.38
2022-11-26T04:03:59.621Z,1019.52
2022-11-26T04:04:59.785Z,1019.51
2022-11-26T04:06:00.590Z,1019.47
2022-11-26T04:07:00.107Z,1019.46
2022-11-26T04:08:00.274Z,1019.47
2022-11-26T04:09:00.410Z,1019.51
2022-11-26T04:10:00.578Z,1019.57
2022-11-26T04:11:00.722Z,1019.58
2022-11-26T04:12:00.881Z,1019.56
2022-11-26T04:13:01.022Z,1019.66
2022-11-26T04:14:01.160Z,1019.70
2022-11-26T04:15:01.325Z,1019.75
2022-11-26T04:16:02.090Z,1019.77
2022-11-26T04:17:02.634Z,1019.74
2022-11-26T04:18:02.607Z,1019.79
2022-11-26T04:19:03.106Z,1019.84
2022-11-26T04:20:02.352Z,1019.83
2022-11-26T04:21:02.487Z,1019.85
2022-11-26T04:22:02.631Z,1019.81
2022-11-26T04:23:02.763Z,1019.85
2022-11-26T04:24:02.885Z,1019.88
2022-11-26T04:25:03.040Z,1019.91
2022-11-26T04:26:03.160Z,1019.97
2022-11-26T04:27:03.290Z,1019.98
2022-11-26T04:28:03.531Z,1020.06
2022-11-26T04:29:03.681Z,1020.01
2022-11-26T04:30:04.591Z,1020.05
2022-11-26T04:31:03.970Z,1020.11
2022-11-26T04:32:04.124Z,1020.07
2022-11-26T04:33:04.305Z,1020.08
2022-11-26T04:34:04.448Z,1020.07
2022-11-26T04:35:04.607Z,1020.05
2022-11-26T04:36:04.772Z,1020.15
2022-11-26T04:37:05.606Z,1020.16
2022-11-26T04:38:05.086Z,1020.17
2022-11-26T04:39:05.257Z,1020.23
2022-11-26T04:40:05.413Z,1020.29
2022-11-26T04:41:06.098Z,1020.25
2022-11-26T04:42:05.753Z,1020.26
2022-11-26T04:43:06.600Z,1020.31
2022-11-26T04:44:06.138Z,1020.38
2022-11-26T04:45:06.311Z,1020.39
2022-11-26T04:46:06.532Z,1020.41
2022-11-26T04:47:06.666Z,1020.49
2022-11-26T04:48:07.844Z,1020.56
2022-11-26T04:49:06.995Z,1020.50
2022-11-26T04:50:07.156Z,1020.56
2022-11-26T04:51:07.350Z,1020.57
2022-11-26T04:52:07.542Z,1020.62
2022-11-26T04:53:07.742Z,1020.63
2022-11-26T04:54:12.769Z,1020.67
2022-11-26T04:55:10.049Z,1020.74
2022-11-26T04:56:08.174Z,1020.70
2022-11-26T04:57:08.354Z,1020.69
2022-11-26T04:58:08.566Z,1020.77
2022-11-26T04:59:08.766Z,1020.72
2022-11-26T05:00:08.950Z,1020.83
2022-11-26T05:01:09.294Z,1020.77
2022-11-26T05:02:09.269Z,1020.86
2022-11-26T05:03:09.509Z,1020.83
2022-11-26T05:04:09.668Z,1020.86
2022-11-26T05:05:09.831Z,1020.91
2022-11-26T05:06:10.000Z,1020.90
2022-11-26T05:07:10.177Z,1020.98
2022-11-26T05:08:10.357Z,1020.92
2022-11-26T05:09:10.520Z,1020.92
2022-11-26T05:10:11.112Z,1020.96
2022-11-26T05:11:10.893Z,1021.01
2022-11-26T05:12:11.073Z,1021.03
2022-11-26T05:13:11.243Z,1020.99
2022-11-26T05:14:11.401Z,1020.96
2022-11-26T05:15:12.103Z,1020.94
2022-11-26T05:16:11.819Z,1020.97
2022-11-26T05:17:11.903Z,1021.03
2022-11-26T05:18:12.601Z,1020.96
2022-11-26T05:19:12.256Z,1020.97
2022-11-26T05:20:13.103Z,1021.00
2022-11-26T05:21:13.103Z,1021.04
2022-11-26T05:22:12.850Z,1021.03
2022-11-26T05:23:13.018Z,1021.00
2022-11-26T05:24:13.184Z,1020.98
2022-11-26T05:25:13.341Z,1021.02
2022-11-26T05:26:13.500Z,1021.04
2022-11-26T05:27:13.668Z,1021.03
2022-11-26T05:28:13.812Z,1020.98
2022-11-26T05:29:13.942Z,1021.03
2022-11-26T05:30:14.088Z,1021.01
2022-11-26T05:31:14.288Z,1021.03
2022-11-26T05:32:14.454Z,1021.03
2022-11-26T05:33:14.610Z,1021.02
2022-11-26T05:34:15.607Z,1021.06
2022-11-26T05:35:14.997Z,1021.07
2022-11-26T05:36:15.159Z,1021.00
2022-11-26T05:37:15.345Z,1021.07
2022-11-26T05:38:15.471Z,1021.13
2022-11-26T05:39:15.596Z,1021.09
2022-11-26T05:40:15.763Z,1021.08
2022-11-26T05:41:15.926Z,1021.12
2022-11-26T05:42:16.079Z,1021.03
2022-11-26T05:43:16.261Z,1021.11
2022-11-26T05:44:16.396Z,1021.13
2022-11-26T05:45:16.536Z,1021.16
2022-11-26T05:46:17.782Z,1021.12
2022-11-26T05:47:16.821Z,1021.12
2022-11-26T05:48:16.955Z,1021.11
2022-11-26T05:49:18.108Z,1021.10
2022-11-26T05:50:17.312Z,1021.10
2022-11-26T05:51:17.513Z,1021.11
2022-11-26T05:52:17.656Z,1021.06
2022-11-26T05:53:17.901Z,1021.07
2022-11-26T05:54:18.133Z,1021.08
2022-11-26T05:55:18.261Z,1021.11
2022-11-26T05:56:18.518Z,1021.09
2022-11-26T05:57:18.648Z,1021.11
2022-11-26T05:58:18.780Z,1021.11
2022-11-26T05:59:18.907Z,1021.15
2022-11-26T06:00:19.138Z,1021.10
2022-11-26T06:01:19.317Z,1021.12
2022-11-26T06:02:19.615Z,1021.14
2022-11-26T06:03:20.759Z,1021.17
2022-11-26T06:04:21.125Z,1021.22
2022-11-26T06:05:20.138Z,1021.18
2022-11-26T06:06:21.122Z,1021.17
2022-11-26T06:07:20.517Z,1021.23
2022-11-26T06:08:20.671Z,1021.29
2022-11-26T06:09:21.615Z,1021.22
2022-11-26T06:10:21.009Z,1021.22
2022-11-26T06:11:22.114Z,1021.24
2022-11-26T06:12:22.111Z,1021.23
2022-11-26T06:13:21.491Z,1021.23
2022-11-26T06:14:21.625Z,1021.20
2022-11-26T06:15:21.804Z,1021.21
2022-11-26T06:16:22.020Z,1021.19
2022-11-26T06:17:22.091Z,1021.23
2022-11-26T06:18:22.248Z,1021.23
2022-11-26T06:19:22.417Z,1021.27
2022-11-26T06:20:22.579Z,1021.24
2022-11-26T06:21:22.736Z,1021.29
2022-11-26T06:22:22.885Z,1021.31
2022-11-26T06:23:23.075Z,1021.38
2022-11-26T06:24:23.232Z,1021.34
2022-11-26T06:25:24.117Z,1021.32
2022-11-26T06:26:24.124Z,1021.35
2022-11-26T06:27:23.776Z,1021.38
2022-11-26T06:28:23.948Z,1021.37
2022-11-26T06:29:27.899Z,1021.47
2022-11-26T06:30:25.298Z,1021.35
2022-11-26T06:31:24.565Z,1021.47
2022-11-26T06:32:24.745Z,1021.51
2022-11-26T06:33:24.908Z,1021.53
2022-11-26T06:34:25.039Z,1021.58
2022-11-26T06:35:26.116Z,1021.56
2022-11-26T06:36:25.345Z,1021.57
2022-11-26T06:37:25.478Z,1021.58
2022-11-26T06:38:25.659Z,1021.67
2022-11-26T06:39:25.824Z,1021.68
2022-11-26T06:40:26.623Z,1021.65
2022-11-26T06:41:26.138Z,1021.74
2022-11-26T06:42:26.407Z,1021.74
2022-11-26T06:43:27.122Z,1021.78
2022-11-26T06:44:26.673Z,1021.84
2022-11-26T06:45:26.886Z,1021.84
2022-11-26T06:46:27.078Z,1021.87
2022-11-26T06:47:28.122Z,1021.86
2022-11-26T06:48:28.120Z,1021.89
2022-11-26T06:49:27.528Z,1021.86
2022-11-26T06:50:27.677Z,1021.89
2022-11-26T06:51:27.881Z,1021.94
2022-11-26T06:52:28.132Z,1021.88
2022-11-26T06:53:28.174Z,1021.94
2022-11-26T06:54:28.350Z,1021.94
2022-11-26T06:55:28.507Z,1021.93
2022-11-26T06:56:28.697Z,1021.94
2022-11-26T06:57:28.915Z,1021.97
2022-11-26T06:58:29.087Z,1021.89
2022-11-26T06:59:29.246Z,1021.90
2022-11-26T07:00:29.442Z,1021.88
2022-11-26T07:01:29.727Z,1021.84
2022-11-26T07:02:29.843Z,1021.80
2022-11-26T07:03:33.399Z,1021.83
2022-11-26T07:04:31.154Z,1021.81
2022-11-26T07:05:30.305Z,1021.87
2022-11-26T07:06:30.458Z,1021.85
2022-11-26T07:07:30.657Z,1021.81
2022-11-26T07:08:30.843Z,1021.88
2022-11-26T07:09:31.627Z,1021.78
2022-11-26T07:10:32.108Z,1021.83
2022-11-26T07:11:32.390Z,1021.82
2022-11-26T07:12:32.122Z,1021.82
2022-11-26T07:13:32.632Z,1021.83
2022-11-26T07:14:31.743Z,1021.86
2022-11-26T07:15:32.934Z,1021.89
2022-11-26T07:16:32.159Z,1021.89
2022-11-26T07:17:32.195Z,1021.82
2022-11-26T07:18:32.346Z,1021.85
2022-11-26T07:19:32.638Z,1021.80
2022-11-26T07:20:32.680Z,1021.85
2022-11-26T07:21:32.840Z,1021.86
2022-11-26T07:22:33.016Z,1021.80
2022-11-26T07:23:33.168Z,1021.86
2022-11-26T07:24:33.311Z,1021.86
2022-11-26T07:25:33.438Z,1021.83
2022-11-26T07:26:33.561Z,1021.76
2022-11-26T07:27:33.720Z,1021.73
2022-11-26T07:28:34.849Z,1021.69
2022-11-26T07:29:34.084Z,1021.59
2022-11-26T07:30:34.245Z,1021.69
2022-11-26T07:31:34.471Z,1021.63
2022-11-26T07:32:34.633Z,1021.64
2022-11-26T07:33:34.771Z,1021.59
2022-11-26T07:34:34.932Z,1021.71
2022-11-26T07:35:35.631Z,1021.63
2022-11-26T07:36:35.263Z,1021.74
2022-11-26T07:37:35.413Z,1021.67
2022-11-26T07:38:35.556Z,1021.67
2022-11-26T07:39:35.686Z,1021.76
2022-11-26T07:40:35.836Z,1021.66
2022-11-26T07:41:35.977Z,1021.69
2022-11-26T07:42:36.629Z,1021.67
2022-11-26T07:43:36.273Z,1021.62
2022-11-26T07:44:36.649Z,1021.64
2022-11-26T07:45:36.532Z,1021.59
2022-11-26T07:46:36.726Z,1021.60
2022-11-26T07:47:36.904Z,1021.55
2022-11-26T07:48:37.042Z,1021.57
2022-11-26T07:49:37.190Z,1021.48
2022-11-26T07:50:37.323Z,1021.58
2022-11-26T07:51:38.478Z,1021.57
2022-11-26T07:52:37.575Z,1021.47
2022-11-26T07:53:37.704Z,1021.50
2022-11-26T07:54:38.390Z,1021.49
2022-11-26T07:55:37.975Z,1021.50
2022-11-26T07:56:38.109Z,1021.48
2022-11-26T07:57:38.249Z,1021.53
2022-11-26T07:58:38.385Z,1021.48
2022-11-26T07:59:38.644Z,1021.51
2022-11-26T08:00:38.653Z,1021.52
2022-11-26T08:01:38.798Z,1021.52
2022-11-26T08:02:39.644Z,1021.46
2022-11-26T08:03:39.138Z,1021.54
2022-11-26T08:04:39.474Z,1021.56
2022-11-26T08:05:39.491Z,1021.57
2022-11-26T08:06:40.635Z,1021.53
2022-11-26T08:07:40.043Z,1021.51
2022-11-26T08:08:40.071Z,1021.45
2022-11-26T08:09:40.652Z,1021.46
2022-11-26T08:10:41.138Z,1021.48
2022-11-26T08:11:40.650Z,1021.48
2022-11-26T08:12:40.798Z,1021.52
2022-11-26T08:13:41.639Z,1021.55
2022-11-26T08:14:41.321Z,1021.48
2022-11-26T08:15:42.137Z,1021.47
2022-11-26T08:16:42.230Z,1021.45
2022-11-26T08:17:42.639Z,1021.42
2022-11-26T08:18:41.887Z,1021.39
2022-11-26T08:19:42.036Z,1021.37
2022-11-26T08:20:42.191Z,1021.42
2022-11-26T08:21:42.318Z,1021.46
2022-11-26T08:22:42.457Z,1021.42
2022-11-26T08:23:43.141Z,1021.36
2022-11-26T08:24:42.759Z,1021.40
2022-11-26T08:26:06.063Z,1021.37
2022-11-26T08:26:45.112Z,1021.31
2022-11-26T08:27:45.143Z,1021.26
2022-11-26T08:28:43.509Z,1021.24
2022-11-26T08:29:43.647Z,1021.14
2022-11-26T08:30:44.157Z,1021.10
2022-11-26T08:31:46.360Z,1021.16
2022-11-26T08:32:45.155Z,1021.12
2022-11-26T08:33:44.272Z,1021.03
2022-11-26T08:34:45.141Z,1021.00
2022-11-26T08:36:05.876Z,1020.87
2022-11-26T08:36:46.799Z,1020.86
2022-11-26T08:37:45.020Z,1020.84
2022-11-26T08:38:46.145Z,1020.88
2022-11-26T08:39:45.391Z,1020.80
2022-11-26T08:40:45.548Z,1020.88
2022-11-26T08:41:51.674Z,1020.91
2022-11-26T08:42:47.871Z,1020.85
2022-11-26T08:44:48.240Z,1020.74
2022-11-26T08:45:46.417Z,1020.74
2022-11-26T08:46:46.608Z,1020.67
2022-11-26T08:47:46.760Z,1020.57
2022-11-26T08:48:46.931Z,1020.45
2022-11-26T08:49:48.103Z,1020.53
2022-11-26T08:50:47.218Z,1020.45
2022-11-26T08:51:47.353Z,1020.43
2022-11-26T08:52:47.511Z,1020.39
2022-11-26T08:53:47.799Z,1020.24
2022-11-26T08:54:48.274Z,1020.16
2022-11-26T08:56:00.117Z,1020.00
2022-11-26T08:56:50.246Z,1019.87
2022-11-26T08:57:48.477Z,1019.68
2022-11-26T08:58:48.800Z,1019.60
2022-11-26T08:59:48.860Z,1019.50
2022-11-26T09:00:49.016Z,1019.41
2022-11-26T09:01:49.233Z,1019.27
2022-11-26T09:02:49.397Z,1019.22
2022-11-26T09:03:49.454Z,1018.95
2022-11-26T09:04:50.153Z,1018.84
2022-11-26T09:05:50.648Z,1018.67
2022-11-26T09:06:49.917Z,1018.53
2022-11-26T09:07:50.147Z,1018.50
2022-11-26T09:08:50.247Z,1018.43
2022-11-26T09:09:51.148Z,1018.42
2022-11-26T09:10:50.534Z,1018.39
2022-11-26T09:11:50.741Z,1018.27
2022-11-26T09:12:50.941Z,1018.23
2022-11-26T09:13:51.100Z,1018.17
2022-11-26T09:14:51.348Z,1018.04
2022-11-26T09:15:52.151Z,1017.97
2022-11-26T09:16:52.198Z,1017.91
2022-11-26T09:17:51.770Z,1017.83
2022-11-26T09:18:51.938Z,1017.72
2022-11-26T09:19:52.101Z,1017.55
2022-11-26T09:20:56.998Z,1017.39
2022-11-26T09:21:54.490Z,1017.25
2022-11-26T09:22:52.637Z,1017.15
2022-11-26T09:23:52.802Z,1017.05
2022-11-26T09:24:52.973Z,1016.84
2022-11-26T09:25:53.147Z,1016.84
2022-11-26T09:26:53.313Z,1016.66
2022-11-26T09:27:53.492Z,1016.51
2022-11-26T09:28:54.165Z,1016.42
2022-11-26T09:29:53.850Z,1016.40
2022-11-26T09:30:54.025Z,1016.27
2022-11-26T09:32:22.648Z,1016.22
2022-11-26T09:32:56.372Z,1016.10
2022-11-26T09:33:55.157Z,1016.13
2022-11-26T09:34:55.173Z,1016.06
2022-11-26T09:35:55.658Z,1016.04
2022-11-26T09:36:55.060Z,1016.04
2022-11-26T09:37:55.242Z,1016.06
2022-11-26T09:38:55.404Z,1016.07
2022-11-26T09:39:55.600Z,1016.07
2022-11-26T09:40:55.800Z,1016.06
2022-11-26T09:41:55.981Z,1015.99
2022-11-26T09:42:56.154Z,1015.97
2022-11-26T09:43:57.159Z,1015.90
2022-11-26T09:44:57.165Z,1015.85
2022-11-26T09:45:56.837Z,1015.76
2022-11-26T09:47:11.529Z,1015.60
2022-11-26T09:47:59.145Z,1015.62
2022-11-26T09:49:01.316Z,1015.62
2022-11-26T09:49:58.471Z,1015.70
2022-11-26T09:50:57.632Z,1015.85
2022-11-26T09:51:57.815Z,1015.88
2022-11-26T09:52:57.995Z,1015.97
2022-11-26T09:53:59.170Z,1016.00
2022-11-26T09:54:58.298Z,1016.10
2022-11-26T09:55:58.471Z,1016.15
2022-11-26T09:56:59.171Z,1016.18
2022-11-26T09:57:59.175Z,1016.23
2022-11-26T09:58:58.962Z,1016.21
2022-11-26T09:59:59.663Z,1016.22
2022-11-26T10:00:59.379Z,1016.22
2022-11-26T10:01:59.527Z,1016.27
2022-11-26T10:02:59.630Z,1016.34
2022-11-26T10:03:59.804Z,1016.29
2022-11-26T10:05:00.669Z,1016.35
2022-11-26T10:06:00.206Z,1016.27
2022-11-26T10:07:01.389Z,1016.23
2022-11-26T10:08:00.649Z,1016.24
2022-11-26T10:09:00.786Z,1016.20
2022-11-26T10:10:01.014Z,1016.14
2022-11-26T10:11:03.937Z,1016.16
2022-11-26T10:12:03.173Z,1016.19
2022-11-26T10:13:18.430Z,1016.03
2022-11-26T10:14:03.683Z,1016.05
2022-11-26T10:15:01.804Z,1016.02
2022-11-26T10:16:01.994Z,1015.95
2022-11-26T10:17:02.686Z,1015.98
2022-11-26T10:18:02.348Z,1015.83
2022-11-26T10:19:02.495Z,1015.76
2022-11-26T10:20:02.638Z,1015.77
2022-11-26T10:21:03.180Z,1015.74
2022-11-26T10:22:02.935Z,1015.72
2022-11-26T10:23:03.671Z,1015.68
2022-11-26T10:24:04.174Z,1015.71
2022-11-26T10:25:03.425Z,1015.74
2022-11-26T10:26:03.589Z,1015.72
2022-11-26T10:27:03.734Z,1015.73
2022-11-26T10:28:03.851Z,1015.86
2022-11-26T10:29:04.103Z,1015.94
2022-11-26T10:30:04.243Z,1015.96
2022-11-26T10:31:04.471Z,1016.01
2022-11-26T10:32:04.521Z,1016.09
2022-11-26T10:33:04.672Z,1016.16
2022-11-26T10:34:04.816Z,1016.25
2022-11-26T10:35:04.979Z,1016.24
2022-11-26T10:36:05.140Z,1016.32
2022-11-26T10:37:05.686Z,1016.43
2022-11-26T10:38:05.472Z,1016.49
2022-11-26T10:39:05.624Z,1016.49
2022-11-26T10:40:07.517Z,1016.62
2022-11-26T10:41:06.866Z,1016.61
2022-11-26T10:42:06.016Z,1016.74
2022-11-26T10:43:06.170Z,1016.83
2022-11-26T10:44:06.293Z,1016.83
2022-11-26T10:45:11.069Z,1016.93
2022-11-26T10:46:08.832Z,1016.88
2022-11-26T10:47:06.975Z,1016.92
2022-11-26T10:48:07.154Z,1017.00
2022-11-26T10:49:07.303Z,1017.09
2022-11-26T10:50:31.869Z,1017.11
2022-11-26T10:51:09.670Z,1017.19
2022-11-26T10:52:08.680Z,1017.24
2022-11-26T10:53:08.054Z,1017.25
2022-11-26T10:54:08.233Z,1017.24
2022-11-26T10:55:08.382Z,1017.32
2022-11-26T10:56:08.527Z,1017.29
2022-11-26T10:57:09.182Z,1017.37
2022-11-26T10:58:08.858Z,1017.43
2022-11-26T10:59:08.988Z,1017.42
2022-11-26T11:00:09.135Z,1017.45
2022-11-26T11:01:09.339Z,1017.48
2022-11-26T11:02:09.467Z,1017.49
2022-11-26T11:03:09.545Z,1017.54
2022-11-26T11:04:09.763Z,1017.62
2022-11-26T11:05:09.944Z,1017.66
2022-11-26T11:06:10.147Z,1017.71
2022-11-26T11:07:12.081Z,1017.68
2022-11-26T11:08:11.488Z,1017.67
2022-11-26T11:09:10.636Z,1017.74
2022-11-26T11:10:11.686Z,1017.80
2022-11-26T11:11:10.978Z,1017.80
2022-11-26T11:12:11.693Z,1017.86
2022-11-26T11:13:11.352Z,1017.95
2022-11-26T11:14:11.497Z,1017.94
2022-11-26T11:15:11.635Z,1017.94
2022-11-26T11:16:11.852Z,1017.89
2022-11-26T11:17:11.904Z,1018.05
2022-11-26T11:18:12.200Z,1018.08
2022-11-26T11:19:12.237Z,1018.07
2022-11-26T11:20:12.383Z,1018.14
2022-11-26T11:21:12.548Z,1018.17
2022-11-26T11:22:13.688Z,1018.14
2022-11-26T11:23:12.966Z,1018.24
2022-11-26T11:24:13.133Z,1018.22
2022-11-26T11:25:13.286Z,1018.30
2022-11-26T11:26:13.466Z,1018.24
2022-11-26T11:27:13.638Z,1018.29
2022-11-26T11:28:13.819Z,1018.25
2022-11-26T11:29:14.695Z,1018.24
2022-11-26T11:30:14.234Z,1018.26
2022-11-26T11:31:14.468Z,1018.23
2022-11-26T11:32:14.659Z,1018.29
2022-11-26T11:33:14.845Z,1018.30
2022-11-26T11:34:15.008Z,1018.28
2022-11-26T11:35:15.174Z,1018.23
2022-11-26T11:36:15.351Z,1018.33
2022-11-26T11:37:15.523Z,1018.33
2022-11-26T11:38:15.711Z,1018.32
2022-11-26T11:39:15.877Z,1018.29
2022-11-26T11:40:17.478Z,1018.29
2022-11-26T11:41:17.191Z,1018.25
2022-11-26T11:42:16.344Z,1018.29
2022-11-26T11:43:16.527Z,1018.30
2022-11-26T11:44:16.723Z,1018.31
2022-11-26T11:45:16.898Z,1018.32
2022-11-26T11:46:17.749Z,1018.27
2022-11-26T11:47:17.291Z,1018.35
2022-11-26T11:48:17.478Z,1018.24
2022-11-26T11:49:17.656Z,1018.32
2022-11-26T11:50:17.854Z,1018.31
2022-11-26T11:51:18.036Z,1018.23
2022-11-26T11:52:18.232Z,1018.24
2022-11-26T11:53:18.397Z,1018.23
2022-11-26T11:54:18.550Z,1018.21
2022-11-26T11:55:19.213Z,1018.25
2022-11-26T11:56:18.866Z,1018.25
2022-11-26T11:57:19.032Z,1018.29
2022-11-26T11:58:19.185Z,1018.19
2022-11-26T11:59:19.343Z,1018.13
2022-11-26T12:00:19.507Z,1018.11
2022-11-26T12:01:19.667Z,1018.08
2022-11-26T12:02:19.877Z,1018.10
2022-11-26T12:03:19.982Z,1018.16
2022-11-26T12:04:20.264Z,1018.13
2022-11-26T12:05:20.717Z,1018.14
2022-11-26T12:06:20.517Z,1018.12
2022-11-26T12:07:20.732Z,1018.12
2022-11-26T12:08:20.883Z,1018.08